Terminal Aerodrome Forecast
Issued by NWS

Home | Current Version | Previous Version | Text Only | Print | Product List | Glossary On
Versions: 1 2 3 4 5 6 7 8 9 10 11 12 13 14 15 16 17 18 19 20 21 22
182
FTUS44 KMAF 241720
TAFHOB
TAF
KHOB 241720Z 2418/2518 17011KT P6SM SCT050 BKN110
      TEMPO 2418/2421 P6SM -SHRA SCT040 OVC110
     FM250200 15007KT P6SM SCT050 BKN110=

USA.gov is the U.S. government's official web portal to all federal, state and local government web resources and services.